createdAt,value
2018-04-13T00:00:56.070Z,12.50
2018-04-13T00:03:23.463Z,12.41
2018-04-13T00:05:50.851Z,12.40
2018-04-13T00:08:18.230Z,12.40
2018-04-13T00:10:45.675Z,12.36
2018-04-13T00:13:13.067Z,12.31
2018-04-13T00:15:40.463Z,12.28
2018-04-13T00:18:07.850Z,12.25
2018-04-13T00:20:35.235Z,12.22
2018-04-13T00:23:02.626Z,12.11
2018-04-13T00:25:30.020Z,11.95
2018-04-13T00:27:57.398Z,11.92
2018-04-13T00:30:24.788Z,11.90
2018-04-13T00:32:52.190Z,11.95
2018-04-13T00:35:19.579Z,12.00
2018-04-13T00:37:47.091Z,12.03
2018-04-13T00:40:14.479Z,12.01
2018-04-13T00:42:41.863Z,11.97
2018-04-13T00:45:09.252Z,11.93
2018-04-13T00:47:36.633Z,11.91
2018-04-13T00:50:04.187Z,11.87
2018-04-13T00:52:31.559Z,11.82
2018-04-13T00:54:58.943Z,11.76
2018-04-13T00:57:26.338Z,11.69
2018-04-13T00:59:53.720Z,11.68
2018-04-13T01:02:21.111Z,11.68
2018-04-13T01:04:48.491Z,11.69
2018-04-13T01:07:15.993Z,11.67
2018-04-13T01:09:43.364Z,11.56
2018-04-13T01:12:10.804Z,11.58
2018-04-13T01:14:38.275Z,11.64
2018-04-13T01:17:05.659Z,11.62
2018-04-13T01:19:33.055Z,11.62
2018-04-13T01:22:00.443Z,11.63
2018-04-13T01:24:27.830Z,11.58
2018-04-13T01:26:55.218Z,11.52
2018-04-13T01:29:22.606Z,11.52
2018-04-13T01:31:49.992Z,11.49
2018-04-13T01:34:17.379Z,11.47
2018-04-13T01:36:44.771Z,11.51
2018-04-13T01:39:12.157Z,11.53
2018-04-13T01:41:39.550Z,11.50
2018-04-13T01:44:06.922Z,11.48
2018-04-13T01:46:34.319Z,11.44
2018-04-13T01:49:01.695Z,11.38
2018-04-13T01:51:29.096Z,11.34
2018-04-13T01:53:56.481Z,11.29
2018-04-13T01:56:23.855Z,11.21
2018-04-13T01:58:51.250Z,11.25
2018-04-13T02:01:18.631Z,11.27
2018-04-13T02:03:46.015Z,11.29
2018-04-13T02:06:13.391Z,11.34
2018-04-13T02:08:40.782Z,11.33
2018-04-13T02:11:08.164Z,11.30
2018-04-13T02:13:35.554Z,11.26
2018-04-13T02:16:02.938Z,11.17
2018-04-13T02:18:30.318Z,11.12
2018-04-13T02:20:57.707Z,11.08
2018-04-13T02:23:25.094Z,11.12
2018-04-13T02:25:52.579Z,11.15
2018-04-13T02:28:19.944Z,11.14
2018-04-13T02:30:47.339Z,11.08
2018-04-13T02:33:14.723Z,11.07
2018-04-13T02:35:42.119Z,11.00
2018-04-13T02:38:09.515Z,11.07
2018-04-13T02:40:36.902Z,11.10
2018-04-13T02:43:04.287Z,11.09
2018-04-13T02:45:31.674Z,11.00
2018-04-13T02:47:59.064Z,10.97
2018-04-13T02:50:26.462Z,10.95
2018-04-13T02:52:54.166Z,10.91
2018-04-13T02:55:21.561Z,10.84
2018-04-13T02:57:48.951Z,10.72
2018-04-13T03:00:16.349Z,10.65
2018-04-13T03:02:43.723Z,10.58
2018-04-13T03:05:11.115Z,10.54
2018-04-13T03:07:38.514Z,10.47
2018-04-13T03:10:05.890Z,10.44
2018-04-13T03:12:33.267Z,10.40
2018-04-13T03:15:00.647Z,10.36
2018-04-13T03:17:28.043Z,10.31
2018-04-13T03:19:55.418Z,10.24
2018-04-13T03:22:22.811Z,10.21
2018-04-13T03:24:50.191Z,10.15
2018-04-13T03:27:17.583Z,10.13
2018-04-13T03:29:44.961Z,10.08
2018-04-13T03:32:12.368Z,10.05
2018-04-13T03:34:39.748Z,10.01
2018-04-13T03:37:07.135Z,9.98
2018-04-13T03:39:34.519Z,9.96
2018-04-13T03:42:01.902Z,9.93
2018-04-13T03:44:29.286Z,9.89
2018-04-13T03:46:56.666Z,9.80
2018-04-13T03:49:24.047Z,9.74
2018-04-13T03:51:51.867Z,9.70
2018-04-13T03:54:19.262Z,9.59
2018-04-13T03:56:46.637Z,9.52
2018-04-13T03:59:14.029Z,9.45
2018-04-13T04:01:41.412Z,9.42
2018-04-13T04:04:08.788Z,9.36
2018-04-13T04:06:36.182Z,9.35
2018-04-13T04:09:03.562Z,9.35
2018-04-13T04:11:30.951Z,9.32
2018-04-13T04:13:58.327Z,9.33
2018-04-13T04:16:25.755Z,9.33
2018-04-13T04:18:53.096Z,9.43
2018-04-13T04:21:32.149Z,9.48
2018-04-13T04:24:11.366Z,9.46
2018-04-13T04:26:50.659Z,9.42
2018-04-13T04:29:18.035Z,9.41
2018-04-13T04:31:45.435Z,9.44
2018-04-13T04:34:12.820Z,9.48
2018-04-13T04:36:40.190Z,9.48
2018-04-13T04:39:07.595Z,9.52
2018-04-13T04:41:34.970Z,9.52
2018-04-13T04:44:02.367Z,9.57
2018-04-13T04:46:29.743Z,9.60
2018-04-13T04:48:57.128Z,9.64
2018-04-13T04:51:24.506Z,9.66
2018-04-13T04:53:51.915Z,9.66
2018-04-13T04:56:19.291Z,9.71
2018-04-13T04:58:46.675Z,9.72
2018-04-13T05:01:14.063Z,9.78
2018-04-13T05:03:41.446Z,9.80
2018-04-13T05:06:08.826Z,9.86
2018-04-13T05:08:36.215Z,9.94
2018-04-13T05:11:03.609Z,9.96
2018-04-13T05:13:30.987Z,9.98
2018-04-13T05:15:58.379Z,10.05
2018-04-13T05:18:25.764Z,10.02
2018-04-13T05:20:53.151Z,10.06
2018-04-13T05:23:20.542Z,10.13
2018-04-13T05:25:47.947Z,10.14
2018-04-13T05:28:15.335Z,10.08
2018-04-13T05:30:42.727Z,10.11
2018-04-13T05:33:10.122Z,10.08
2018-04-13T05:35:37.511Z,10.07
2018-04-13T05:38:04.893Z,10.21
2018-04-13T05:40:32.282Z,10.30
2018-04-13T05:42:59.659Z,10.36
2018-04-13T05:45:27.052Z,10.48
2018-04-13T05:47:54.443Z,10.60
2018-04-13T05:50:21.830Z,10.65
2018-04-13T05:52:49.222Z,10.71
2018-04-13T05:55:16.820Z,10.74
2018-04-13T05:57:44.203Z,10.79
2018-04-13T06:00:11.643Z,10.86
2018-04-13T06:02:38.979Z,10.93
2018-04-13T06:05:06.367Z,11.02
2018-04-13T06:07:33.751Z,11.07
2018-04-13T06:10:01.139Z,11.15
2018-04-13T06:12:28.534Z,11.22
2018-04-13T06:14:55.911Z,11.30
2018-04-13T06:17:23.306Z,11.34
2018-04-13T06:19:50.691Z,11.37
2018-04-13T06:22:18.079Z,11.37
2018-04-13T06:24:45.459Z,11.46
2018-04-13T06:27:12.841Z,11.40
2018-04-13T06:29:40.235Z,11.41
2018-04-13T06:32:07.630Z,11.38
2018-04-13T06:34:35.023Z,11.42
2018-04-13T06:37:02.408Z,11.41
2018-04-13T06:39:29.804Z,11.50
2018-04-13T06:41:57.182Z,11.59
2018-04-13T06:44:24.571Z,11.72
2018-04-13T06:46:51.970Z,11.77
2018-04-13T06:49:19.355Z,11.95
2018-04-13T06:51:46.739Z,12.09
2018-04-13T06:54:14.272Z,12.24
2018-04-13T06:56:41.694Z,12.40
2018-04-13T06:59:09.058Z,12.46
2018-04-13T07:01:36.452Z,12.56
2018-04-13T07:04:03.838Z,12.72
2018-04-13T07:06:31.219Z,12.87
2018-04-13T07:08:58.604Z,13.00
2018-04-13T07:11:25.993Z,13.09
2018-04-13T07:13:53.387Z,13.19
2018-04-13T07:16:20.767Z,13.21
2018-04-13T07:18:48.188Z,13.21
2018-04-13T07:21:15.564Z,13.21
2018-04-13T07:23:42.946Z,13.17
2018-04-13T07:26:10.338Z,13.20
2018-04-13T07:28:37.731Z,13.30
2018-04-13T07:31:05.126Z,13.32
2018-04-13T07:33:32.512Z,13.34
2018-04-13T07:36:00.223Z,13.41
2018-04-13T07:38:27.608Z,13.36
2018-04-13T07:40:54.986Z,13.47
2018-04-13T07:43:22.370Z,13.57
2018-04-13T07:45:50.005Z,13.67
2018-04-13T07:48:17.794Z,13.79
2018-04-13T07:50:44.528Z,13.79
2018-04-13T07:53:11.922Z,13.88
2018-04-13T07:55:39.304Z,13.98
2018-04-13T07:58:06.734Z,14.02
2018-04-13T08:00:34.680Z,14.19
2018-04-13T08:03:01.479Z,14.20
2018-04-13T08:05:28.867Z,14.29
2018-04-13T08:07:56.302Z,14.27
2018-04-13T08:10:23.687Z,14.35
2018-04-13T08:12:51.071Z,14.29
2018-04-13T08:15:18.464Z,14.35
2018-04-13T08:17:45.852Z,14.34
2018-04-13T08:20:13.235Z,14.37
2018-04-13T08:22:40.619Z,14.27
2018-04-13T08:25:07.998Z,14.29
2018-04-13T08:27:35.387Z,14.32
2018-04-13T08:30:02.855Z,14.25
2018-04-13T08:32:30.248Z,14.32
2018-04-13T08:34:57.632Z,14.29
2018-04-13T08:37:25.019Z,14.29
2018-04-13T08:39:52.405Z,14.39
2018-04-13T08:42:19.778Z,14.32
2018-04-13T08:44:47.167Z,14.36
2018-04-13T08:47:14.575Z,14.50
2018-04-13T08:49:41.927Z,14.47
2018-04-13T08:52:09.334Z,14.56
2018-04-13T08:54:36.691Z,14.82
2018-04-13T08:57:04.085Z,14.96
2018-04-13T08:59:31.470Z,15.06
2018-04-13T09:01:58.856Z,15.12
2018-04-13T09:04:26.234Z,15.24
2018-04-13T09:06:53.623Z,15.45
2018-04-13T09:09:21.023Z,15.43
2018-04-13T09:11:48.424Z,15.30
2018-04-13T09:14:15.809Z,15.46
2018-04-13T09:16:43.187Z,15.46
2018-04-13T09:19:10.579Z,15.58
2018-04-13T09:21:37.963Z,15.63
2018-04-13T09:24:05.351Z,15.59
2018-04-13T09:26:32.731Z,15.73
2018-04-13T09:29:00.129Z,15.73
2018-04-13T09:31:27.511Z,15.46
2018-04-13T09:33:54.904Z,15.41
2018-04-13T09:36:22.292Z,15.64
2018-04-13T09:38:49.679Z,15.91
2018-04-13T09:41:17.071Z,15.97
2018-04-13T09:43:44.480Z,15.98
2018-04-13T09:46:11.914Z,16.18
2018-04-13T09:48:39.254Z,16.20
2018-04-13T09:51:06.651Z,16.37
2018-04-13T09:53:34.039Z,16.41
2018-04-13T09:56:01.424Z,16.25
2018-04-13T09:58:28.810Z,16.27
2018-04-13T10:00:59.979Z,16.22
2018-04-13T10:03:27.367Z,16.02
2018-04-13T10:05:54.767Z,15.95
2018-04-13T10:08:22.147Z,15.82
2018-04-13T10:10:49.554Z,15.90
2018-04-13T10:13:16.959Z,15.97
2018-04-13T10:15:44.365Z,15.90
2018-04-13T10:18:11.726Z,15.82
2018-04-13T10:20:39.116Z,15.89
2018-04-13T10:23:06.495Z,15.91
2018-04-13T10:25:33.886Z,16.03
2018-04-13T10:28:01.271Z,16.09
2018-04-13T10:30:29.079Z,16.17
2018-04-13T10:32:56.505Z,16.11
2018-04-13T10:35:23.891Z,16.16
2018-04-13T10:37:51.281Z,16.21
2018-04-13T10:40:18.663Z,16.26
2018-04-13T10:42:46.046Z,16.23
2018-04-13T10:45:13.449Z,16.28
2018-04-13T10:47:40.839Z,16.20
2018-04-13T10:50:08.222Z,16.16
2018-04-13T10:52:35.622Z,16.18
2018-04-13T10:55:03.013Z,16.21
2018-04-13T10:57:30.399Z,16.28
2018-04-13T10:59:57.782Z,16.18
2018-04-13T11:02:25.175Z,16.33
2018-04-13T11:04:52.563Z,16.47
2018-04-13T11:07:19.955Z,16.57
2018-04-13T11:09:47.347Z,16.47
2018-04-13T11:12:16.467Z,16.51
2018-04-13T11:14:43.842Z,16.45
2018-04-13T11:17:11.290Z,16.48
2018-04-13T11:19:38.675Z,16.49
2018-04-13T11:22:06.059Z,16.43
2018-04-13T11:24:33.442Z,16.40
2018-04-13T11:27:00.827Z,16.19
2018-04-13T11:29:28.207Z,16.24
2018-04-13T11:31:55.595Z,16.32
2018-04-13T11:34:23.070Z,16.34
2018-04-13T11:36:50.496Z,16.39
2018-04-13T11:39:17.915Z,16.50
2018-04-13T11:41:45.294Z,16.64
2018-04-13T11:44:12.687Z,16.89
2018-04-13T11:46:40.071Z,16.94
2018-04-13T11:49:07.460Z,16.81
2018-04-13T11:51:34.843Z,16.85
2018-04-13T11:54:02.250Z,16.95
2018-04-13T11:56:29.630Z,17.01
2018-04-13T11:58:57.022Z,17.20
2018-04-13T12:01:24.415Z,17.35
2018-04-13T12:03:51.796Z,17.61
2018-04-13T12:06:19.183Z,17.90
2018-04-13T12:08:46.567Z,18.12
2018-04-13T12:11:13.947Z,18.31
2018-04-13T12:13:41.334Z,18.41
2018-04-13T12:16:08.727Z,18.17
2018-04-13T12:18:36.110Z,17.83
2018-04-13T12:21:03.534Z,18.02
2018-04-13T12:23:30.915Z,17.90
2018-04-13T12:25:58.295Z,17.87
2018-04-13T12:28:25.691Z,17.88
2018-04-13T12:30:53.115Z,17.87
2018-04-13T12:33:20.511Z,17.60
2018-04-13T12:35:47.895Z,17.39
2018-04-13T12:38:15.305Z,17.46
2018-04-13T12:40:42.666Z,17.39
2018-04-13T12:43:10.064Z,17.40
2018-04-13T12:45:37.455Z,17.36
2018-04-13T12:48:04.826Z,17.35
2018-04-13T12:50:32.228Z,17.49
2018-04-13T12:52:59.628Z,17.69
2018-04-13T12:55:27.003Z,17.77
2018-04-13T12:57:54.382Z,18.02
2018-04-13T13:00:22.027Z,18.23
2018-04-13T13:02:49.420Z,18.30
2018-04-13T13:05:16.795Z,18.35
2018-04-13T13:07:44.187Z,18.33
2018-04-13T13:10:11.570Z,18.25
2018-04-13T13:12:38.968Z,18.08
2018-04-13T13:15:06.435Z,17.92
2018-04-13T13:17:33.912Z,17.99
2018-04-13T13:20:01.299Z,17.96
2018-04-13T13:22:28.691Z,17.98
2018-04-13T13:24:56.127Z,18.00
2018-04-13T13:27:23.510Z,17.94
2018-04-13T13:29:50.900Z,17.82
2018-04-13T13:32:18.279Z,17.69
2018-04-13T13:34:45.670Z,17.75
2018-04-13T13:37:13.054Z,17.70
2018-04-13T13:39:40.439Z,17.53
2018-04-13T13:42:07.824Z,17.41
2018-04-13T13:44:35.207Z,17.55
2018-04-13T13:47:02.601Z,17.51
2018-04-13T13:49:30.027Z,17.53
2018-04-13T13:51:57.817Z,17.48
2018-04-13T13:54:25.200Z,17.40
2018-04-13T13:56:52.608Z,17.37
2018-04-13T13:59:20.001Z,17.36
2018-04-13T14:01:47.376Z,17.24
2018-04-13T14:04:14.899Z,17.27
2018-04-13T14:06:42.293Z,17.33
2018-04-13T14:09:09.678Z,17.40
2018-04-13T14:11:37.071Z,17.39
2018-04-13T14:14:04.462Z,17.51
2018-04-13T14:16:31.983Z,17.61
2018-04-13T14:18:59.369Z,17.53
2018-04-13T14:21:26.754Z,17.69
2018-04-13T14:23:54.148Z,17.72
2018-04-13T14:26:21.551Z,17.60
2018-04-13T14:28:48.936Z,17.36
2018-04-13T14:31:16.315Z,17.36
2018-04-13T14:33:43.702Z,17.42
2018-04-13T14:36:11.092Z,17.47
2018-04-13T14:38:38.491Z,17.42
2018-04-13T14:41:05.871Z,17.42
2018-04-13T14:43:33.264Z,17.47
2018-04-13T14:46:00.647Z,17.30
2018-04-13T14:48:28.035Z,17.08
2018-04-13T14:50:55.592Z,17.12
2018-04-13T14:53:22.915Z,17.10
2018-04-13T14:55:50.313Z,16.92
2018-04-13T14:58:17.691Z,16.84
2018-04-13T15:00:45.090Z,16.79
2018-04-13T15:03:12.471Z,16.88
2018-04-13T15:05:39.852Z,16.84
2018-04-13T15:08:07.235Z,16.82
2018-04-13T15:10:34.620Z,16.68
2018-04-13T15:13:02.011Z,16.73
2018-04-13T15:15:29.388Z,16.72
2018-04-13T15:17:56.786Z,16.81
2018-04-13T15:20:24.168Z,16.81
2018-04-13T15:22:51.555Z,16.88
2018-04-13T15:25:18.950Z,16.90
2018-04-13T15:27:46.326Z,16.94
2018-04-13T15:30:13.991Z,16.98
2018-04-13T15:32:41.484Z,16.97
2018-04-13T15:35:08.865Z,17.04
2018-04-13T15:37:36.260Z,16.89
2018-04-13T15:40:03.691Z,16.91
2018-04-13T15:42:31.116Z,17.04
2018-04-13T15:44:58.933Z,17.09
2018-04-13T15:47:26.379Z,17.11
2018-04-13T15:49:53.785Z,17.17
2018-04-13T15:52:21.159Z,17.15
2018-04-13T15:54:48.580Z,17.04
2018-04-13T15:57:16.011Z,17.07
2018-04-13T15:59:43.415Z,17.07
2018-04-13T16:02:10.826Z,17.00
2018-04-13T16:04:38.574Z,17.06
2018-04-13T16:07:05.983Z,17.05
2018-04-13T16:09:33.356Z,17.04
2018-04-13T16:12:00.739Z,17.07
2018-04-13T16:14:28.123Z,17.05
2018-04-13T16:16:55.515Z,17.08
2018-04-13T16:19:22.914Z,17.06
2018-04-13T16:21:50.307Z,17.04
2018-04-13T16:24:17.690Z,17.05
2018-04-13T16:26:45.089Z,17.07
2018-04-13T16:29:12.463Z,17.05
2018-04-13T16:31:39.851Z,17.05
2018-04-13T16:34:07.239Z,17.02
2018-04-13T16:36:34.627Z,17.01
2018-04-13T16:39:02.039Z,17.02
2018-04-13T16:41:29.405Z,17.00
2018-04-13T16:43:56.786Z,16.98
2018-04-13T16:46:24.175Z,16.96
2018-04-13T16:48:51.560Z,16.92
2018-04-13T16:51:18.949Z,16.91
2018-04-13T16:53:46.327Z,16.93
2018-04-13T16:56:13.747Z,16.93
2018-04-13T16:58:41.128Z,16.93
2018-04-13T17:01:08.510Z,16.90
2018-04-13T17:03:35.904Z,16.86
2018-04-13T17:06:03.283Z,16.84
2018-04-13T17:08:30.666Z,16.83
2018-04-13T17:10:58.065Z,16.76
2018-04-13T17:13:25.471Z,16.76
2018-04-13T17:15:52.855Z,16.78
2018-04-13T17:18:20.244Z,16.68
2018-04-13T17:20:47.627Z,16.68
2018-04-13T17:23:15.015Z,16.72
2018-04-13T17:25:42.402Z,16.73
2018-04-13T17:28:09.783Z,16.69
2018-04-13T17:30:37.178Z,16.66
2018-04-13T17:33:04.562Z,16.63
2018-04-13T17:35:31.943Z,16.61
2018-04-13T17:37:59.347Z,16.59
2018-04-13T17:40:26.837Z,16.57
2018-04-13T17:42:54.187Z,16.54
2018-04-13T17:45:21.574Z,16.49
2018-04-13T17:47:48.974Z,16.45
2018-04-13T17:50:16.355Z,16.42
2018-04-13T17:52:43.734Z,16.39
2018-04-13T17:55:12.007Z,16.37
2018-04-13T17:57:39.382Z,16.34
2018-04-13T18:00:06.762Z,16.28
2018-04-13T18:02:34.155Z,16.20
2018-04-13T18:05:01.547Z,16.14
2018-04-13T18:07:29.032Z,16.10
2018-04-13T18:09:56.493Z,16.03
2018-04-13T18:12:23.959Z,16.05
2018-04-13T18:14:51.338Z,16.03
2018-04-13T18:17:18.743Z,15.99
2018-04-13T18:19:46.126Z,15.93
2018-04-13T18:22:13.923Z,15.99
2018-04-13T18:24:41.306Z,15.92
2018-04-13T18:27:08.696Z,15.87
2018-04-13T18:29:36.084Z,15.84
2018-04-13T18:32:03.463Z,15.81
2018-04-13T18:34:30.859Z,15.80
2018-04-13T18:36:58.258Z,15.75
2018-04-13T18:39:25.669Z,15.68
2018-04-13T18:41:53.050Z,15.65
2018-04-13T18:44:20.436Z,15.62
2018-04-13T18:46:47.823Z,15.54
2018-04-13T18:49:15.222Z,15.50
2018-04-13T18:51:42.607Z,15.45
2018-04-13T18:54:10.002Z,15.47
2018-04-13T18:56:37.383Z,15.43
2018-04-13T18:59:04.775Z,15.37
2018-04-13T19:01:32.220Z,15.37
2018-04-13T19:03:59.615Z,15.30
2018-04-13T19:06:27.058Z,15.28
2018-04-13T19:08:54.446Z,15.24
2018-04-13T19:11:21.834Z,15.24
2018-04-13T19:13:49.227Z,15.26
2018-04-13T19:16:16.616Z,15.18
2018-04-13T19:18:44.015Z,15.14
2018-04-13T19:21:11.402Z,15.16
2018-04-13T19:23:38.786Z,15.17
2018-04-13T19:26:06.246Z,15.22
2018-04-13T19:28:33.562Z,15.21
2018-04-13T19:31:00.955Z,15.21
2018-04-13T19:33:28.360Z,15.20
2018-04-13T19:35:55.734Z,15.14
2018-04-13T19:38:23.115Z,15.15
2018-04-13T19:40:50.495Z,15.18
2018-04-13T19:43:17.928Z,15.16
2018-04-13T19:45:45.299Z,15.17
2018-04-13T19:48:12.688Z,15.16
2018-04-13T19:50:40.081Z,15.16
2018-04-13T19:53:07.462Z,15.16
2018-04-13T19:55:34.855Z,15.18
2018-04-13T19:58:02.281Z,15.15
2018-04-13T20:00:29.961Z,15.13
2018-04-13T20:02:57.344Z,15.13
2018-04-13T20:05:24.727Z,15.13
2018-04-13T20:07:52.119Z,15.13
2018-04-13T20:10:19.503Z,15.15
2018-04-13T20:12:46.897Z,15.09
2018-04-13T20:15:24.987Z,15.08
2018-04-13T20:17:52.378Z,15.05
2018-04-13T20:20:19.762Z,15.11
2018-04-13T20:22:47.139Z,14.95
2018-04-13T20:25:14.535Z,15.05
2018-04-13T20:27:41.919Z,15.08
2018-04-13T20:30:09.325Z,15.09
2018-04-13T20:32:36.702Z,15.14
2018-04-13T20:35:04.090Z,15.07
2018-04-13T20:37:31.478Z,15.07
2018-04-13T20:39:58.866Z,15.04
2018-04-13T20:42:26.567Z,14.99
2018-04-13T20:44:53.951Z,15.07
2018-04-13T20:47:21.335Z,15.00
2018-04-13T20:49:48.719Z,15.03
2018-04-13T20:52:16.099Z,15.04
2018-04-13T20:54:43.521Z,14.99
2018-04-13T20:57:10.890Z,14.96
2018-04-13T20:59:38.271Z,14.91
2018-04-13T21:02:05.662Z,14.90
2018-04-13T21:04:33.042Z,14.84
2018-04-13T21:07:00.431Z,14.78
2018-04-13T21:09:27.815Z,14.74
2018-04-13T21:11:55.194Z,14.75
2018-04-13T21:14:22.578Z,14.73
2018-04-13T21:16:49.963Z,14.73
2018-04-13T21:19:17.355Z,14.74
2018-04-13T21:21:44.735Z,14.74
2018-04-13T21:24:12.114Z,14.72
2018-04-13T21:26:39.509Z,14.76
2018-04-13T21:29:06.891Z,14.70
2018-04-13T21:31:34.692Z,14.52
2018-04-13T21:34:02.066Z,14.57
2018-04-13T21:36:29.455Z,14.61
2018-04-13T21:38:56.844Z,14.62
2018-04-13T21:41:24.234Z,14.62
2018-04-13T21:43:51.622Z,14.63
2018-04-13T21:46:19.028Z,14.61
2018-04-13T21:48:46.409Z,14.65
2018-04-13T21:51:13.795Z,14.68
2018-04-13T21:53:41.175Z,14.64
2018-04-13T21:56:08.567Z,14.66
2018-04-13T21:58:35.955Z,14.64
2018-04-13T22:01:03.359Z,14.65
2018-04-13T22:03:30.815Z,14.62
2018-04-13T22:05:58.206Z,14.56
2018-04-13T22:08:25.591Z,14.49
2018-04-13T22:10:52.977Z,14.49
2018-04-13T22:13:30.907Z,14.50
2018-04-13T22:15:58.283Z,14.48
2018-04-13T22:18:25.662Z,14.42
2018-04-13T22:23:25.879Z,14.37
2018-04-13T22:25:53.270Z,14.35
2018-04-13T22:28:20.658Z,14.27
2018-04-13T22:30:48.040Z,14.25
2018-04-13T22:33:15.432Z,14.21
2018-04-13T22:35:42.811Z,14.14
2018-04-13T22:38:10.210Z,14.06
2018-04-13T22:40:37.595Z,13.99
2018-04-13T22:43:04.978Z,13.95
2018-04-13T22:45:32.478Z,13.91
2018-04-13T22:47:59.866Z,13.94
2018-04-13T22:50:27.263Z,13.95
2018-04-13T22:52:54.650Z,13.94
2018-04-13T22:55:22.039Z,13.96
2018-04-13T22:57:49.461Z,14.00
2018-04-13T23:00:16.830Z,14.00
2018-04-13T23:02:44.241Z,14.00
2018-04-13T23:05:11.622Z,13.97
2018-04-13T23:07:39.011Z,13.93
2018-04-13T23:10:06.504Z,13.88
2018-04-13T23:12:33.891Z,13.84
2018-04-13T23:15:01.300Z,13.81
2018-04-13T23:17:28.690Z,13.81
2018-04-13T23:19:56.083Z,13.82
2018-04-13T23:22:35.122Z,13.77
2018-04-13T23:25:02.514Z,13.70
2018-04-13T23:27:29.907Z,13.69
2018-04-13T23:29:57.297Z,13.63
2018-04-13T23:32:24.683Z,13.55
2018-04-13T23:34:52.070Z,13.50
2018-04-13T23:37:19.462Z,13.51
2018-04-13T23:39:46.862Z,13.41
2018-04-13T23:42:14.262Z,13.37
2018-04-13T23:44:41.639Z,13.28
2018-04-13T23:47:09.033Z,13.25
2018-04-13T23:49:36.424Z,13.28
2018-04-13T23:52:03.818Z,13.33
2018-04-13T23:54:31.206Z,13.24
2018-04-13T23:56:58.595Z,13.25
2018-04-13T23:59:25.989Z,13.25
